Terminal Aerodrome Forecast
Issued by NWS La Crosse, WI

Home | Current Version | Previous Version | Text Only | Print | Product List | Glossary On
Versions: 1 2 3 4 5 6 7 8 9 10 11 12 13 14 15 16 17 18 19 20 21 22 23 24 25 26 27 28 29 30 31 32 33 34 35 36 37 38 39 40
000
FTUS43 KARX 282336
TAFRST
TAF
KRST 282336Z 2900/2924 18014KT P6SM SCT050 BKN200
     FM290400 18011KT P6SM BKN100
     FM290700 18010KT P6SM -SHRA BKN035
     FM291000 19009KT P6SM -SHRA BKN015
     FM292000 27011KT P6SM -TSRA OVC015CB=

USA.gov is the U.S. government's official web portal to all federal, state and local government web resources and services.